Flight Track Log - Related Links

Times and Time Zones

All times are in EDT time to prevent confusion due to time zone crossing. See the N679EA flight status page for this flight to view local times or setup timezone preferences in your user account.

Time Position Orientation Groundspeed Altitude Reporting Facility
EDT Latitude Longitude Course Direction KTS MPH feet Rate Location/Type
Fri 04:15:00 PM 33.0540 -80.1880 320° Northwest  Level Estimated
Fri 04:16:00 PM 33.0837 -80.2195 318° Northwest  Level FlightAware Approximate
Fri 04:17:00 PM 33.1134 -80.2509 318° Northwest  Level FlightAware Approximate
Fri 04:18:00 PM 33.1431 -80.2823 318° Northwest  Level FlightAware Approximate
Fri 04:19:00 PM 33.1742 -80.3119 317° Northwest  Level Estimated
Fri 04:20:00 PM 33.2034 -80.3441 317° Northwest  Level FlightAware Approximate
Fri 04:21:00 PM 33.2325 -80.3764 317° Northwest  Level FlightAware Approximate
Fri 04:22:00 PM 33.2617 -80.4086 317° Northwest  Level FlightAware Approximate
Fri 04:23:00 PM 33.2908 -80.4409 317° Northwest  Level FlightAware Approximate
Fri 04:24:00 PM 33.3199 -80.4732 317° Northwest  Level FlightAware Approximate
Fri 04:25:00 PM 33.3490 -80.5055 317° Northwest  Level FlightAware Approximate
Fri 04:26:00 PM 33.3782 -80.5378 317° Northwest  Level FlightAware Approximate
Fri 04:27:00 PM 33.4073 -80.5702 317° Northwest  Level FlightAware Approximate
Fri 04:28:00 PM 33.4364 -80.6026 317° Northwest  Level FlightAware Approximate
Fri 04:29:00 PM 33.4676 -80.6320 319° Northwest  Level Estimated
Fri 04:30:00 PM 33.4970 -80.6640 318° Northwest  Level FlightAware Approximate
Fri 04:31:00 PM 33.5265 -80.6960 318° Northwest  Level FlightAware Approximate
Fri 04:32:00 PM 33.5559 -80.7280 318° Northwest  Level FlightAware Approximate
Fri 04:33:00 PM 33.5853 -80.7600 318° Northwest  Level FlightAware Approximate
Fri 04:34:00 PM 33.6147 -80.7921 318° Northwest  Level FlightAware Approximate
Fri 04:35:00 PM 33.6440 -80.8242 318° Northwest  Level FlightAware Approximate
Fri 04:36:00 PM 33.6734 -80.8563 318° Northwest  Level FlightAware Approximate
Fri 04:37:00 PM 33.7028 -80.8884 318° Northwest  Level FlightAware Approximate
Fri 04:38:00 PM 33.7342 -80.9176 323° Northwest  Level Estimated
Fri 04:39:00 PM 33.7655 -80.9471 322° Northwest  Level FlightAware Approximate
Fri 04:40:00 PM 33.7968 -80.9765 322° Northwest  Level FlightAware Approximate
Fri 04:41:00 PM 33.8280 -81.0060 322° Northwest  Level FlightAware Approximate
Fri 04:42:00 PM 33.8593 -81.0355 322° Northwest  Level FlightAware Approximate
Fri 04:43:00 PM 33.8906 -81.0650 322° Northwest  Level FlightAware Approximate
Fri 04:44:00 PM 33.9218 -81.0945 322° Northwest  Level FlightAware Approximate
Fri 04:45:00 PM 33.9530 -81.1240 322° Northwest  Level FlightAware Approximate
Fri 04:46:00 PM 33.9843 -81.1536 322° Northwest  Level FlightAware Approximate
Fri 04:47:00 PM 34.0155 -81.1832 322° Northwest  Level FlightAware Approximate
Fri 04:48:00 PM 34.0467 -81.2129 322° Northwest  Level FlightAware Approximate
Fri 04:49:00 PM 34.0779 -81.2425 322° Northwest  Level FlightAware Approximate
Fri 04:50:00 PM 34.1092 -81.2721 322° Northwest  Level FlightAware Approximate
Fri 04:51:00 PM 34.1404 -81.3018 322° Northwest  Level FlightAware Approximate
Fri 04:52:00 PM 34.1716 -81.3316 322° Northwest  Level FlightAware Approximate
Fri 04:53:00 PM 34.2027 -81.3613 322° Northwest  Level FlightAware Approximate
Fri 04:54:00 PM 34.2339 -81.3910 322° Northwest  Level FlightAware Approximate
Fri 04:55:00 PM 34.2653 -81.4205 321° Northwest  Level Estimated
Fri 04:56:00 PM 34.2964 -81.4504 322° Northwest  Level FlightAware Approximate
Fri 04:57:00 PM 34.3275 -81.4803 322° Northwest  Level FlightAware Approximate
Fri 04:58:00 PM 34.3586 -81.5102 322° Northwest  Level FlightAware Approximate
Fri 04:59:00 PM 34.3896 -81.5402 322° Northwest  Level FlightAware Approximate
Fri 05:00:00 PM 34.4207 -81.5702 321° Northwest  Level FlightAware Approximate
Fri 05:01:00 PM 34.4518 -81.6002 321° Northwest  Level FlightAware Approximate
Fri 05:02:00 PM 34.4828 -81.6302 321° Northwest  Level FlightAware Approximate
Fri 05:03:00 PM 34.5139 -81.6603 321° Northwest  Level FlightAware Approximate
Fri 05:04:00 PM 34.5449 -81.6903 321° Northwest  Level FlightAware Approximate
Fri 05:05:00 PM 34.5760 -81.7204 321° Northwest  Level FlightAware Approximate
Fri 05:06:00 PM 34.6070 -81.7505 321° Northwest  Level FlightAware Approximate
Fri 05:07:00 PM 34.6380 -81.7807 321° Northwest  Level FlightAware Approximate
Fri 05:08:00 PM 34.6690 -81.8108 321° Northwest  Level FlightAware Approximate
Fri 05:09:00 PM 34.7000 -81.8410 321° Northwest  Level FlightAware Approximate
Fri 05:10:00 PM 34.7310 -81.8712 321° Northwest  Level FlightAware Approximate
Fri 05:11:00 PM 34.7620 -81.9015 321° Northwest  Level FlightAware Approximate
Fri 05:12:00 PM 34.7930 -81.9317 321° Northwest  Level FlightAware Approximate
Fri 05:13:00 PM 34.8240 -81.9620 321° Northwest  Level FlightAware Approximate
Fri 05:14:00 PM 34.8549 -81.9923 321° Northwest  Level FlightAware Approximate
Fri 05:15:00 PM 34.8859 -82.0226 321° Northwest  Level FlightAware Approximate
Fri 05:16:00 PM 34.9168 -82.0529 321° Northwest  Level FlightAware Approximate
Fri 05:17:00 PM 34.9484 -82.0824 331° Northwest  Level Estimated
Fri 05:18:00 PM 34.9799 -82.1119 321° Northwest  Level Estimated
Fri 05:19:00 PM 35.0113 -82.1415 322° Northwest  Level FlightAware Approximate
Fri 05:20:00 PM 35.0427 -82.1713 322° Northwest  Level FlightAware Approximate
Fri 05:21:00 PM 35.0741 -82.2010 322° Northwest  Level FlightAware Approximate
Fri 05:22:00 PM 35.1054 -82.2307 322° Northwest  Level FlightAware Approximate
Fri 05:23:00 PM 35.1370 -82.2603 North  Level Estimated
Fri 05:24:00 PM 35.1685 -82.2898 321° Northwest  Level Estimated
Fri 05:25:00 PM 35.2003 -82.3189 323° Northwest  Level FlightAware Approximate
Fri 05:26:00 PM 35.2321 -82.3481 323° Northwest  Level FlightAware Approximate
Fri 05:27:00 PM 35.2639 -82.3773 323° Northwest  Level FlightAware Approximate
Fri 05:28:00 PM 35.2952 -82.4071 321° Northwest  Level Estimated
Fri 05:29:00 PM 35.3265 -82.4370 321° Northwest  Level Estimated
Fri 05:30:00 PM 35.3579 -82.4669 321° Northwest  Level Estimated
Fri 05:31:00 PM 35.3892 -82.4969 321° Northwest  Level Estimated
Fri 05:32:00 PM 35.4205 -82.5268 321° Northwest  Level Estimated
Fri 05:33:00 PM 35.4333 -82.5333 321° Northwest  Level FlightAware Approximate
Fri 05:34:00 PM 35.4362 -82.5418 321° Northwest  Level Estimated
Fri 05:35:00 PM 35.4362 -82.5418 321° Northwest  Level Estimated
Fri 05:36:00 PM 35.4362 -82.5418 321° Northwest  Level Estimated
Fri 05:37:00 PM 35.4362 -82.5418 321° Northwest  Level Estimated

Login

Don't have an account? Register now (free) for customized features, flight alerts, and more!